Time;durP1;ratioP1;P1;durP2;ratioP2;P2;SDS_P1;SDS_P2;PMS_P1;PMS_P2;Temp;Humidity;BMP_temperature;BMP_pressure;BME280_temperature;BME280_humidity;BME280_pressure;Samples;Min_cycle;Max_cycle;Signal;HPM_P1;HPM_P2
2022/06/22 00:01:22;;;;;;;9.80;5.82;;;;;;;12.90;96.32;101182.38;5204856;28;20641;-72
2022/06/22 00:03:58;;;;;;;9.32;5.72;;;;;;;12.79;96.55;101188.59;5205520;28;20429;-72
2022/06/22 00:06:45;;;;;;;10.18;6.35;;;;;;;12.81;96.07;101180.44;5201114;28;20025;-72
2022/06/22 00:09:23;;;;;;;11.13;6.55;;;;;;;12.79;96.46;101175.22;5209778;28;20038;-72
2022/06/22 00:11:58;;;;;;;10.93;6.25;;;;;;;12.81;96.69;101175.94;5200190;28;20480;-72
2022/06/22 00:14:35;;;;;;;10.73;7.68;;;;;;;12.85;97.43;101166.69;5212113;28;20037;-72
2022/06/22 00:17:17;;;;;;;12.43;8.20;;;;;;;12.90;98.13;101163.63;5203745;28;20475;-72
2022/06/22 00:19:48;;;;;;;12.07;7.80;;;;;;;12.95;98.25;101162.28;5205289;28;20042;-72
2022/06/22 00:22:24;;;;;;;11.65;7.88;;;;;;;12.93;97.53;101156.19;5205277;28;20488;-72
2022/06/22 00:25:01;;;;;;;12.52;7.70;;;;;;;12.91;98.18;101158.13;5210152;28;20099;-72
2022/06/22 00:27:36;;;;;;;8.68;7.78;;;;;;;12.84;98.52;101161.44;5207768;28;20077;-72
2022/06/22 00:30:14;;;;;;;12.40;8.88;;;;;;;12.89;98.62;101160.09;5203515;28;20053;-72
2022/06/22 00:32:59;;;;;;;13.25;8.48;;;;;;;12.89;98.77;101165.47;5209573;28;20058;-72
2022/06/22 00:36:12;;;;;;;10.80;8.43;;;;;;;12.91;99.06;101159.97;5211935;28;20357;-72
2022/06/22 00:38:43;;;;;;;13.82;8.73;;;;;;;12.89;99.48;101149.38;5215444;28;20377;-70
2022/06/22 00:41:24;;;;;;;12.65;9.27;;;;;;;12.92;100.00;101138.44;5211226;28;20040;-70
2022/06/22 00:43:56;;;;;;;15.15;9.00;;;;;;;12.89;100.00;101153.91;5205251;28;20034;-70
2022/06/22 00:46:28;;;;;;;14.00;9.40;;;;;;;12.87;100.00;101166.56;5191073;28;20527;-70
2022/06/22 00:49:09;;;;;;;13.73;9.57;;;;;;;12.85;100.00;101176.56;5210482;28;20038;-70
2022/06/22 00:51:43;;;;;;;11.95;9.48;;;;;;;12.82;100.00;101168.75;5209816;28;20037;-70
2022/06/22 00:54:19;;;;;;;11.35;8.75;;;;;;;12.87;100.00;101155.84;5206276;28;20036;-70
2022/06/22 00:57:03;;;;;;;13.90;9.85;;;;;;;12.84;100.00;101146.22;5206597;28;20439;-70
2022/06/22 00:59:56;;;;;;;14.15;9.52;;;;;;;12.85;100.00;101153.28;5208236;28;20469;-70
2022/06/22 01:02:44;;;;;;;13.98;9.65;;;;;;;12.83;100.00;101149.00;5201099;28;20076;-71
2022/06/22 01:05:24;;;;;;;12.40;9.90;;;;;;;12.87;100.00;101140.63;5202512;28;20041;-71
2022/06/22 01:08:10;;;;;;;14.43;10.25;;;;;;;12.84;100.00;101132.84;5205733;28;20041;-71
2022/06/22 01:10:45;;;;;;;13.73;9.93;;;;;;;12.83;100.00;101151.69;5208028;28;20038;-71
2022/06/22 01:13:27;;;;;;;15.15;9.88;;;;;;;12.74;100.00;101161.34;5202415;28;20120;-71
2022/06/22 01:16:22;;;;;;;14.90;9.88;;;;;;;12.78;100.00;101170.81;5205443;28;20041;-71
2022/06/22 01:18:59;;;;;;;13.25;9.82;;;;;;;12.71;100.00;101167.81;5206613;28;20030;-71
2022/06/22 01:21:37;;;;;;;15.43;9.77;;;;;;;12.74;100.00;101175.56;5208371;28;20045;-71
2022/06/22 01:24:18;;;;;;;12.60;9.02;;;;;;;12.74;100.00;101180.09;5208110;28;20509;-71
2022/06/22 01:27:07;;;;;;;13.10;9.75;;;;;;;12.74;100.00;101170.22;5207880;28;20037;-71
2022/06/22 01:29:47;;;;;;;13.60;10.60;;;;;;;12.68;100.00;101161.84;5213890;28;20025;-71
2022/06/22 01:32:30;;;;;;;14.85;10.45;;;;;;;12.59;100.00;101157.22;5211707;28;20482;-71
2022/06/22 01:35:22;;;;;;;15.10;10.98;;;;;;;12.62;100.00;101140.88;5205296;28;20424;-71
2022/06/22 01:37:54;;;;;;;12.18;10.43;;;;;;;12.57;100.00;101133.25;5208292;28;20033;-71
2022/06/22 01:40:45;;;;;;;12.73;9.95;;;;;;;12.63;100.00;101130.06;5206953;28;20034;-71
2022/06/22 01:43:46;;;;;;;14.60;10.55;;;;;;;12.60;100.00;101127.66;5208517;28;20109;-71
2022/06/22 01:47:01;;;;;;;14.43;10.93;;;;;;;12.65;100.00;101140.66;5205874;28;20045;-71
2022/06/22 01:49:41;;;;;;;12.55;10.30;;;;;;;12.66;100.00;101142.38;5150015;28;20398;-71
2022/06/22 01:52:30;;;;;;;13.43;10.55;;;;;;;12.60;100.00;101133.00;5213595;28;20141;-71
2022/06/22 01:55:11;;;;;;;17.35;10.75;;;;;;;12.57;100.00;101127.06;5202842;28;20034;-71
2022/06/22 01:57:50;;;;;;;15.50;11.60;;;;;;;12.61;100.00;101134.69;5215860;28;20029;-71
2022/06/22 02:00:21;;;;;;;16.35;12.32;;;;;;;12.62;100.00;101128.38;5209505;28;20293;-71
2022/06/22 02:03:04;;;;;;;18.42;12.25;;;;;;;12.59;100.00;101133.97;5211156;28;20026;-71
2022/06/22 02:05:46;;;;;;;18.15;11.52;;;;;;;12.59;100.00;101131.28;5211375;28;20034;-71
2022/06/22 02:08:33;;;;;;;17.33;12.00;;;;;;;12.60;100.00;101130.34;5207166;28;20026;-71
2022/06/22 02:11:15;;;;;;;17.88;12.43;;;;;;;12.60;100.00;101138.38;5218451;28;20029;-71
2022/06/22 02:14:09;;;;;;;14.82;11.57;;;;;;;12.57;100.00;101127.91;5204270;28;20028;-71
2022/06/22 02:16:51;;;;;;;20.15;11.82;;;;;;;12.56;100.00;101120.84;5205311;28;20045;-71
2022/06/22 02:19:22;;;;;;;17.45;12.43;;;;;;;12.58;100.00;101128.72;5200668;28;20046;-71
2022/06/22 02:21:57;;;;;;;16.73;12.25;;;;;;;12.55;100.00;101133.34;5216935;28;20098;-71
2022/06/22 02:24:33;;;;;;;15.93;12.70;;;;;;;12.53;100.00;101135.31;5205113;28;20467;-71
2022/06/22 02:27:18;;;;;;;18.67;12.48;;;;;;;12.51;100.00;101126.56;5211741;28;20038;-71
2022/06/22 02:29:56;;;;;;;20.88;13.48;;;;;;;12.48;100.00;101123.28;5205119;28;20613;-71
2022/06/22 02:32:31;;;;;;;16.70;11.60;;;;;;;12.49;100.00;101114.28;5210639;28;20033;-71
2022/06/22 02:35:05;;;;;;;15.88;12.77;;;;;;;12.52;100.00;101111.34;5206400;28;20136;-71
2022/06/22 02:37:45;;;;;;;18.33;12.00;;;;;;;12.43;100.00;101106.75;5205292;28;20022;-71
2022/06/22 02:40:22;;;;;;;18.27;12.48;;;;;;;12.48;100.00;101104.53;5207841;28;20300;-71
2022/06/22 02:45:45;;;;;;;19.98;12.88;;;;;;;12.43;100.00;101107.59;5209797;28;20045;-71
2022/06/22 02:48:33;;;;;;;17.25;12.73;;;;;;;12.42;100.00;101097.84;5203422;28;20038;-71
2022/06/22 02:51:30;;;;;;;19.65;13.13;;;;;;;12.34;100.00;101105.66;5202954;28;20104;-71
2022/06/22 02:54:05;;;;;;;21.02;12.98;;;;;;;12.32;100.00;101108.44;5202565;28;20042;-71
2022/06/22 02:56:39;;;;;;;17.73;12.80;;;;;;;12.34;100.00;101117.19;5211520;28;20377;-72
2022/06/22 02:59:10;;;;;;;;;;;;;;;12.30;100.00;101118.41;5209878;28;20487;-71
2022/06/22 03:01:42;;;;;;;18.05;12.30;;;;;;;12.17;100.00;101125.72;5220142;28;19917;-71
2022/06/22 03:04:15;;;;;;;16.10;13.27;;;;;;;12.13;100.00;101130.44;5207540;28;20026;-71
2022/06/22 03:06:51;;;;;;;16.63;13.20;;;;;;;12.27;100.00;101126.72;5220882;28;20033;-71
2022/06/22 03:09:26;;;;;;;17.38;13.30;;;;;;;12.19;100.00;101117.56;5216474;28;20662;-71
2022/06/22 03:11:59;;;;;;;18.30;13.57;;;;;;;12.11;100.00;101131.56;5214271;28;20048;-71
2022/06/22 03:14:44;;;;;;;18.80;14.20;;;;;;;12.07;100.00;101116.72;5209075;28;20041;-71
2022/06/22 03:17:19;;;;;;;18.52;13.32;;;;;;;12.03;100.00;101123.28;5209201;28;20034;-72
2022/06/22 03:20:14;;;;;;;20.23;14.00;;;;;;;12.07;100.00;101119.41;5207221;28;20092;-71
2022/06/22 03:22:58;;;;;;;22.50;15.18;;;;;;;12.10;100.00;101113.78;5207564;28;20044;-71
2022/06/22 03:25:42;;;;;;;16.73;13.53;;;;;;;12.18;100.00;101107.81;5200902;28;20032;-71
2022/06/22 03:28:21;;;;;;;18.85;14.23;;;;;;;12.09;100.00;101109.44;5208605;28;20703;-71
2022/06/22 03:31:06;;;;;;;19.73;15.10;;;;;;;12.08;100.00;101105.03;5205734;28;20483;-71
2022/06/22 03:33:44;;;;;;;20.38;14.77;;;;;;;12.07;100.00;101100.66;5213202;28;20418;-72
2022/06/22 03:36:20;;;;;;;22.83;14.18;;;;;;;12.09;100.00;101109.44;5211656;28;20022;-71
2022/06/22 03:38:55;;;;;;;19.48;16.08;;;;;;;12.11;100.00;101105.66;5207378;28;20066;-72
2022/06/22 03:41:31;;;;;;;20.92;14.55;;;;;;;12.14;100.00;101113.44;5200355;28;20030;-71
2022/06/22 03:44:15;;;;;;;19.73;14.45;;;;;;;12.07;100.00;101112.22;5205357;28;20153;-72
2022/06/22 03:46:54;;;;;;;19.55;14.98;;;;;;;12.09;100.00;101102.25;5210516;28;20025;-71
2022/06/22 03:49:32;;;;;;;21.33;14.95;;;;;;;12.14;100.00;101099.22;5219208;28;20025;-72
2022/06/22 03:52:08;;;;;;;20.75;15.30;;;;;;;12.15;100.00;101085.69;5210432;28;20059;-72
2022/06/22 03:54:54;;;;;;;21.60;15.38;;;;;;;12.12;100.00;101095.81;5210555;28;20030;-71
2022/06/22 03:57:29;;;;;;;21.30;15.05;;;;;;;12.16;100.00;101098.13;5212350;28;20025;-71
2022/06/22 04:00:01;;;;;;;;;;;;;;;12.16;100.00;101102.63;5209806;28;20043;-71
2022/06/22 04:02:33;;;;;;;18.85;15.20;;;;;;;12.15;100.00;101099.06;5200828;28;19917;-72
2022/06/22 04:05:05;;;;;;;20.48;15.75;;;;;;;12.19;100.00;101096.16;5210754;28;20103;-72
2022/06/22 04:07:39;;;;;;;22.90;16.27;;;;;;;12.18;100.00;101086.44;5213544;28;20528;-72
2022/06/22 04:10:52;;;;;;;19.80;15.88;;;;;;;12.20;100.00;101084.50;5212267;28;20026;-72
2022/06/22 04:13:34;;;;;;;19.90;16.02;;;;;;;12.23;100.00;101082.41;5216345;28;20049;-72
2022/06/22 04:16:12;;;;;;;20.75;15.63;;;;;;;12.22;100.00;101082.56;5216009;28;20034;-72
2022/06/22 04:18:53;;;;;;;20.00;15.65;;;;;;;12.26;100.00;101086.69;5206738;28;20136;-72
2022/06/22 04:21:36;;;;;;;21.13;16.60;;;;;;;12.27;100.00;101097.28;5221171;28;20058;-72
2022/06/22 04:24:24;;;;;;;22.23;15.88;;;;;;;12.27;100.00;101102.63;5216781;28;20542;-72
2022/06/22 04:27:04;;;;;;;22.00;16.65;;;;;;;12.31;100.00;101092.50;5208699;28;20045;-72
2022/06/22 04:29:42;;;;;;;23.35;17.33;;;;;;;12.35;100.00;101097.50;5210197;28;20038;-72
2022/06/22 04:32:19;;;;;;;23.60;16.75;;;;;;;12.42;100.00;101105.88;5218550;28;20191;-71
2022/06/22 04:35:03;;;;;;;25.83;17.08;;;;;;;12.42;100.00;101111.22;5214143;28;20026;-72
2022/06/22 04:37:46;;;;;;;23.52;16.33;;;;;;;12.41;100.00;101111.38;5210438;28;20032;-71
2022/06/22 04:40:52;;;;;;;21.40;17.13;;;;;;;12.45;100.00;101111.00;5201628;28;20042;-72
2022/06/22 04:43:24;;;;;;;20.77;16.17;;;;;;;12.50;100.00;101116.84;5195340;28;20041;-72
2022/06/22 04:45:56;;;;;;;24.77;16.25;;;;;;;12.60;100.00;101118.75;5209810;28;20044;-71
2022/06/22 04:48:41;;;;;;;21.60;17.35;;;;;;;12.55;100.00;101122.66;5210330;28;20026;-71
2022/06/22 04:51:18;;;;;;;23.00;17.65;;;;;;;12.58;100.00;101118.91;5211047;28;20468;-72
2022/06/22 04:53:58;;;;;;;24.45;18.90;;;;;;;12.63;100.00;101122.03;5212998;28;20056;-71
2022/06/22 04:56:39;;;;;;;22.05;17.95;;;;;;;12.69;100.00;101120.69;5211120;28;20504;-71
2022/06/22 04:59:13;;;;;;;23.35;17.30;;;;;;;12.74;100.00;101118.50;5210459;28;20030;-71
2022/06/22 05:02:01;;;;;;;24.08;17.42;;;;;;;12.77;100.00;101126.28;5208543;28;20103;-71
2022/06/22 05:04:39;;;;;;;26.63;18.23;;;;;;;12.85;100.00;101123.84;5202489;28;20037;-71
2022/06/22 05:07:26;;;;;;;23.02;18.10;;;;;;;12.86;100.00;101136.22;5203502;28;20030;-71
2022/06/22 05:10:09;;;;;;;23.90;17.42;;;;;;;12.90;100.00;101139.50;5209451;28;20046;-72
2022/06/22 05:12:46;;;;;;;22.63;17.48;;;;;;;12.90;100.00;101134.16;5207151;28;20034;-71
2022/06/22 05:15:22;;;;;;;21.92;18.23;;;;;;;12.94;100.00;101130.25;5206324;28;20025;-71
2022/06/22 05:17:55;;;;;;;21.38;18.38;;;;;;;12.98;100.00;101137.06;5204501;28;20060;-71
2022/06/22 05:20:34;;;;;;;23.70;17.92;;;;;;;13.07;100.00;101132.78;5208033;28;20096;-71
2022/06/22 05:23:07;;;;;;;23.63;18.02;;;;;;;13.11;100.00;101127.03;5210194;28;20022;-71
2022/06/22 05:25:42;;;;;;;26.15;17.80;;;;;;;13.21;100.00;101132.50;5208688;28;20034;-71
2022/06/22 05:28:23;;;;;;;24.70;18.50;;;;;;;13.34;100.00;101135.03;5215400;28;20030;-71
2022/06/22 05:31:02;;;;;;;27.45;18.17;;;;;;;13.42;100.00;101139.75;5210825;28;20500;-71
2022/06/22 05:33:36;;;;;;;24.88;18.55;;;;;;;13.48;100.00;101140.09;5208311;28;20171;-71
2022/06/22 05:36:12;;;;;;;19.30;16.85;;;;;;;13.57;100.00;101142.97;5215903;28;20061;-71
2022/06/22 05:38:47;;;;;;;22.90;16.67;;;;;;;13.65;100.00;101140.47;5206548;28;20083;-72
2022/06/22 05:41:26;;;;;;;21.27;17.25;;;;;;;13.69;100.00;101141.91;5212437;28;20477;-71
2022/06/22 05:44:02;;;;;;;25.30;18.80;;;;;;;13.75;100.00;101141.41;5211933;28;20033;-72
2022/06/22 05:46:34;;;;;;;22.13;17.90;;;;;;;13.81;100.00;101151.63;5205783;28;20034;-72
2022/06/22 05:49:13;;;;;;;24.70;17.42;;;;;;;13.86;100.00;101159.25;5208708;28;20029;-71
2022/06/22 05:51:58;;;;;;;23.00;18.13;;;;;;;13.86;100.00;101164.63;5224565;28;20022;-71
2022/06/22 05:54:52;;;;;;;20.10;15.88;;;;;;;13.83;100.00;101160.38;5206411;28;20567;-71
2022/06/22 05:57:39;;;;;;;22.52;16.98;;;;;;;13.92;100.00;101173.00;5212526;28;20030;-72
2022/06/22 06:00:14;;;;;;;21.40;16.75;;;;;;;13.95;100.00;101179.09;5207902;28;20045;-71
2022/06/22 06:03:00;;;;;;;21.38;15.65;;;;;;;13.99;100.00;101178.69;5207977;28;20534;-72
2022/06/22 06:05:44;;;;;;;18.77;14.93;;;;;;;14.08;100.00;101177.91;5216285;28;20038;-71
2022/06/22 06:08:35;;;;;;;21.17;16.20;;;;;;;14.11;100.00;101184.81;5209266;28;20037;-71
2022/06/22 06:11:09;;;;;;;25.10;16.40;;;;;;;14.28;100.00;101176.16;5201043;28;20087;-71
2022/06/22 06:13:44;;;;;;;;;;;;;;;14.24;100.00;101176.56;5201090;28;20559;-71
2022/06/22 06:16:26;;;;;;;18.60;15.88;;;;;;;14.36;100.00;101171.97;5205516;28;19920;-71
2022/06/22 06:19:02;;;;;;;20.40;15.68;;;;;;;14.43;100.00;101173.97;5203939;28;20025;-71
2022/06/22 06:21:37;;;;;;;19.92;15.60;;;;;;;14.58;100.00;101182.56;5204796;28;20304;-71
2022/06/22 06:24:21;;;;;;;19.00;15.18;;;;;;;14.55;100.00;101174.72;5209278;28;20104;-72
2022/06/22 06:30:00;;;;;;;21.25;15.30;;;;;;;14.98;100.00;101186.22;5205359;28;20152;-72
2022/06/22 06:32:51;;;;;;;20.05;15.32;;;;;;;15.15;100.00;101184.69;5203445;28;20037;-72
2022/06/22 06:35:35;;;;;;;18.25;14.88;;;;;;;15.27;100.00;101188.97;5204158;28;20037;-71
2022/06/22 06:38:12;;;;;;;20.03;15.37;;;;;;;15.41;100.00;101193.06;5202590;28;20033;-72
2022/06/22 06:40:48;;;;;;;18.20;14.70;;;;;;;15.58;100.00;101188.84;5205370;28;20292;-72
2022/06/22 06:43:32;;;;;;;20.70;15.27;;;;;;;15.74;100.00;101175.69;5203067;28;20041;-72
2022/06/22 06:46:13;;;;;;;17.90;14.47;;;;;;;15.89;99.52;101162.66;5206577;28;20060;-72
2022/06/22 06:48:51;;;;;;;22.70;14.90;;;;;;;16.04;96.74;101165.75;5200333;28;20418;-72
2022/06/22 06:51:26;;;;;;;17.92;14.50;;;;;;;16.22;96.51;101168.50;5202891;28;20030;-72
2022/06/22 06:54:11;;;;;;;18.52;13.70;;;;;;;16.39;95.00;101156.13;5203832;28;20089;-72
2022/06/22 06:56:57;;;;;;;18.17;14.10;;;;;;;16.55;93.95;101161.75;5199126;28;20365;-72
2022/06/22 06:59:30;;;;;;;19.48;14.52;;;;;;;16.71;92.43;101163.78;5204203;28;20033;-72
2022/06/22 07:02:13;;;;;;;18.17;13.93;;;;;;;16.75;92.77;101157.09;5205133;28;20037;-72
2022/06/22 07:04:46;;;;;;;17.00;13.57;;;;;;;16.80;91.89;101153.97;5201897;28;20033;-71
2022/06/22 07:07:20;;;;;;;16.60;14.75;;;;;;;16.98;90.45;101151.31;5206741;28;20030;-72
2022/06/22 07:09:56;;;;;;;17.48;13.00;;;;;;;17.02;88.96;101147.31;5205489;28;20096;-72
2022/06/22 07:12:36;;;;;;;14.50;12.85;;;;;;;17.14;88.94;101143.41;5212819;28;20040;-72
2022/06/22 07:15:15;;;;;;;17.10;12.45;;;;;;;17.25;87.95;101148.56;5212852;28;20049;-72
2022/06/22 07:17:50;;;;;;;16.25;12.48;;;;;;;17.48;88.25;101155.34;5207355;28;20029;-72
2022/06/22 07:20:30;;;;;;;16.88;12.32;;;;;;;17.62;86.33;101142.16;5202654;28;20125;-71
2022/06/22 07:23:11;;;;;;;17.23;12.50;;;;;;;17.66;87.76;101140.00;5206464;28;20025;-72
2022/06/22 07:25:47;;;;;;;16.63;12.25;;;;;;;17.87;83.18;101146.94;5205473;28;20030;-72
2022/06/22 07:28:33;;;;;;;16.10;10.70;;;;;;;17.91;84.18;101142.91;5197256;28;20038;-72
2022/06/22 07:31:26;;;;;;;13.95;12.05;;;;;;;18.07;83.38;101134.09;5204176;28;20392;-72
2022/06/22 07:34:04;;;;;;;13.73;11.07;;;;;;;18.21;81.45;101126.22;5201776;28;20021;-72
2022/06/22 07:36:37;;;;;;;12.25;10.25;;;;;;;18.34;78.95;101122.25;5206770;28;20034;-72
2022/06/22 07:39:08;;;;;;;14.82;10.93;;;;;;;18.37;80.12;101120.06;5202257;28;20034;-72
2022/06/22 07:41:40;;;;;;;15.95;11.70;;;;;;;18.56;81.27;101127.06;5200878;28;20041;-72
2022/06/22 07:44:18;;;;;;;16.00;10.85;;;;;;;18.75;79.27;101133.19;5203810;28;20101;-72
2022/06/22 07:46:57;;;;;;;15.52;10.65;;;;;;;18.88;78.63;101144.44;5202511;28;20105;-72
2022/06/22 07:49:35;;;;;;;15.10;10.48;;;;;;;18.89;79.83;101146.13;5218577;28;20029;-72
2022/06/22 07:52:13;;;;;;;15.30;10.20;;;;;;;19.09;75.94;101133.16;5203138;28;20029;-72
2022/06/22 07:54:56;;;;;;;13.40;10.27;;;;;;;19.18;75.00;101136.72;5199603;28;20025;-72
2022/06/22 07:57:37;;;;;;;13.52;9.00;;;;;;;19.10;74.65;101123.16;5203843;28;20057;-72
2022/06/22 08:00:16;;;;;;;15.60;10.35;;;;;;;19.20;75.95;101132.00;5205499;28;20574;-72
2022/06/22 08:03:03;;;;;;;12.77;10.20;;;;;;;19.33;75.62;101137.75;5204109;28;20575;-72
2022/06/22 08:05:39;;;;;;;14.40;10.50;;;;;;;19.43;73.70;101136.75;5204542;28;20026;-72
2022/06/22 08:08:22;;;;;;;12.13;9.55;;;;;;;19.43;74.54;101137.59;5204004;28;20128;-72
2022/06/22 08:11:02;;;;;;;15.57;10.55;;;;;;;19.63;76.44;101148.09;5201976;28;20407;-72
2022/06/22 08:13:40;;;;;;;14.15;12.25;;;;;;;19.59;76.27;101142.16;5200973;28;20437;-72
2022/06/22 08:16:18;;;;;;;17.70;12.30;;;;;;;19.61;75.43;101144.72;5198185;28;20390;-71
2022/06/22 08:18:50;;;;;;;17.88;11.13;;;;;;;19.50;73.27;101146.75;5203802;28;20033;-71
2022/06/22 08:21:22;;;;;;;15.35;11.10;;;;;;;19.64;74.83;101153.34;5197074;28;20045;-71
2022/06/22 08:23:56;;;;;;;16.17;11.20;;;;;;;19.61;74.40;101155.53;5205401;28;20103;-71
2022/06/22 08:26:31;;;;;;;14.85;10.55;;;;;;;19.81;73.61;101154.22;5204847;28;20021;-71
2022/06/22 08:29:02;;;;;;;14.75;10.82;;;;;;;19.75;73.74;101158.44;5200181;28;20037;-71
2022/06/22 08:31:45;;;;;;;14.90;11.45;;;;;;;19.83;73.20;101163.00;5213258;28;20500;-71
2022/06/22 08:34:23;;;;;;;14.65;10.20;;;;;;;19.84;69.88;101159.28;5212226;28;20068;-71
2022/06/22 08:37:06;;;;;;;12.02;9.15;;;;;;;20.05;69.71;101147.06;5206241;28;20038;-71
2022/06/22 08:40:08;;;;;;;10.25;8.38;;;;;;;20.09;71.79;101159.25;5211524;28;20084;-71
2022/06/22 08:42:52;;;;;;;11.75;8.32;;;;;;;20.32;67.90;101159.34;5207111;28;20337;-71
2022/06/22 08:45:42;;;;;;;14.70;7.95;;;;;;;20.34;68.30;101154.59;5209323;28;20171;-71
2022/06/22 08:48:51;;;;;;;11.25;7.32;;;;;;;20.31;67.46;101158.53;5203813;28;20034;-71
2022/06/22 08:51:46;;;;;;;13.50;8.07;;;;;;;20.66;67.58;101158.25;5211973;28;20092;-71
2022/06/22 08:54:34;;;;;;;9.20;7.10;;;;;;;20.66;66.60;101160.97;5211232;28;20507;-71
2022/06/22 08:57:40;;;;;;;9.77;6.00;;;;;;;20.89;66.38;101152.91;5201937;28;20400;-71
2022/06/22 09:00:17;;;;;;;11.32;5.00;;;;;;;20.97;61.06;101155.56;5206757;28;20196;-71
2022/06/22 09:03:13;;;;;;;9.02;4.55;;;;;;;21.03;62.08;101143.16;5203990;28;20108;-71
2022/06/22 09:05:51;;;;;;;7.65;4.03;;;;;;;21.29;59.62;101137.38;5203694;28;20107;-71
2022/06/22 09:08:50;;;;;;;6.53;3.70;;;;;;;21.20;61.01;101147.44;5205011;28;20033;-71
2022/06/22 09:11:33;;;;;;;8.50;4.22;;;;;;;21.08;60.20;101140.75;5206833;28;20460;-71
2022/06/22 09:14:34;;;;;;;10.82;4.20;;;;;;;21.34;60.80;101154.81;5204655;28;20060;-71
2022/06/22 09:17:30;;;;;;;7.65;3.65;;;;;;;21.33;60.72;101141.44;5200926;28;20033;-71
2022/06/22 09:20:33;;;;;;;9.20;3.97;;;;;;;21.48;60.26;101155.09;5204375;28;20096;-71
2022/06/22 09:23:26;;;;;;;8.18;4.15;;;;;;;21.41;58.43;101156.81;5202434;28;20097;-71
2022/06/22 09:26:08;;;;;;;5.53;3.60;;;;;;;21.56;57.95;101160.44;5204648;28;20842;-72
2022/06/22 09:28:48;;;;;;;7.57;3.80;;;;;;;21.64;55.93;101162.25;5200753;28;20045;-72
2022/06/22 09:31:56;;;;;;;7.43;3.83;;;;;;;21.68;55.57;101164.41;5205899;28;20110;-72
2022/06/22 09:35:06;;;;;;;8.60;4.57;;;;;;;21.67;54.91;101170.88;5200595;28;20033;-72
2022/06/22 09:38:00;;;;;;;6.50;3.55;;;;;;;21.77;56.25;101167.09;5203231;28;20239;-72
2022/06/22 09:40:46;;;;;;;7.00;3.50;;;;;;;21.75;58.59;101167.25;5204766;28;20412;-72
2022/06/22 09:43:42;;;;;;;7.68;4.65;;;;;;;21.97;56.46;101162.78;5205599;28;20112;-72
2022/06/22 09:46:38;;;;;;;7.43;4.25;;;;;;;22.07;55.00;101162.53;5199397;28;20022;-71
2022/06/22 09:49:48;;;;;;;6.40;3.10;;;;;;;22.05;53.48;101172.75;5205642;28;20480;-73
2022/06/22 09:52:40;;;;;;;7.72;3.08;;;;;;;22.18;51.97;101169.38;5209861;28;20033;-73
2022/06/22 09:58:58;;;;;;;6.93;2.97;;;;;;;22.36;52.97;101152.72;5199265;28;20120;-73
2022/06/22 10:02:17;;;;;;;7.82;2.85;;;;;;;22.42;54.46;101155.56;5194020;28;20057;-73
2022/06/22 10:05:23;;;;;;;7.05;2.97;;;;;;;22.40;50.73;101152.19;5159337;28;20532;-73
2022/06/22 10:08:21;;;;;;;5.28;3.00;;;;;;;22.35;49.17;101148.34;5159761;28;20126;-73
2022/06/22 10:11:23;;;;;;;5.13;2.78;;;;;;;22.40;50.60;101144.03;5201912;28;20042;-73
2022/06/22 10:14:37;;;;;;;5.80;3.20;;;;;;;22.25;47.88;101154.91;5203047;28;20088;-73
2022/06/22 10:17:41;;;;;;;7.13;2.88;;;;;;;22.37;50.11;101147.13;5203221;28;20105;-73
2022/06/22 10:20:41;;;;;;;6.57;2.47;;;;;;;22.43;49.82;101138.19;5200403;28;20101;-74
2022/06/22 10:23:37;;;;;;;6.85;2.38;;;;;;;22.50;49.69;101130.16;5202018;28;20148;-74
2022/06/22 10:26:24;;;;;;;5.90;2.70;;;;;;;22.56;50.58;101126.66;5205518;28;20171;-73
2022/06/22 10:29:02;;;;;;;6.97;2.72;;;;;;;22.56;46.21;101136.72;5203989;28;20033;-73
2022/06/22 10:31:58;;;;;;;4.82;2.22;;;;;;;22.73;47.42;101132.75;5207987;28;20494;-73
2022/06/22 10:34:42;;;;;;;7.85;3.38;;;;;;;22.68;47.51;101135.19;5202523;28;20032;-73
2022/06/22 10:37:19;;;;;;;;;;;;;;;22.80;47.80;101124.66;5207151;28;20105;-73
2022/06/22 10:46:23;;;;;;;7.57;2.60;;;;;;;22.90;45.49;101128.75;5204178;28;20117;-73
2022/06/22 10:49:31;;;;;;;6.07;2.80;;;;;;;22.83;46.17;101127.81;5203326;28;20038;-74
2022/06/22 10:52:19;;;;;;;6.22;2.90;;;;;;;22.97;46.05;101127.97;5205394;28;20036;-73
2022/06/22 10:55:24;;;;;;;3.83;2.28;;;;;;;23.06;46.83;101124.16;5203895;28;20388;-74
2022/06/22 10:58:20;;;;;;;5.80;2.45;;;;;;;23.13;43.81;101127.78;5202321;28;20412;-73
2022/06/22 11:01:18;;;;;;;7.68;2.97;;;;;;;23.09;44.61;101123.78;5199228;28;20083;-73
2022/06/22 11:04:26;;;;;;;6.70;2.30;;;;;;;23.36;46.84;101119.44;5204987;28;20034;-73
2022/06/22 11:07:23;;;;;;;7.90;2.20;;;;;;;23.43;47.69;101117.63;5204366;28;20157;-73
2022/06/22 11:10:26;;;;;;;6.70;2.42;;;;;;;23.51;43.77;101124.81;5200727;28;20112;-73
2022/06/22 11:13:03;;;;;;;6.07;2.40;;;;;;;23.63;43.47;101131.41;5200868;28;20034;-73
2022/06/22 11:16:13;;;;;;;6.03;2.00;;;;;;;23.66;44.44;101121.97;5199501;28;20422;-73
2022/06/22 11:19:26;;;;;;;5.15;2.20;;;;;;;23.69;42.73;101122.44;5196559;28;20499;-73
2022/06/22 11:22:22;;;;;;;5.80;2.30;;;;;;;23.78;43.22;101122.28;5199820;28;20050;-73
2022/06/22 11:31:38;;;;;;;5.82;1.98;;;;;;;23.80;45.48;101114.81;5203825;28;20109;-73
2022/06/22 11:34:40;;;;;;;8.52;2.53;;;;;;;23.95;45.02;101122.84;5201809;28;20517;-73
2022/06/22 11:37:14;;;;;;;6.53;3.10;;;;;;;23.90;44.84;101126.19;5199648;28;20038;-73
2022/06/22 11:40:17;;;;;;;6.90;2.60;;;;;;;23.99;42.86;101126.84;5203831;28;20022;-73
2022/06/22 11:43:13;;;;;;;6.43;2.53;;;;;;;24.13;42.88;101128.66;5197681;28;20037;-73
2022/06/22 11:45:58;;;;;;;4.35;2.08;;;;;;;24.30;42.13;101131.03;5201403;28;20113;-73
2022/06/22 11:49:07;;;;;;;3.72;2.13;;;;;;;24.16;40.64;101127.41;5202902;28;20040;-73
2022/06/22 11:51:41;;;;;;;4.97;2.20;;;;;;;23.82;40.01;101124.47;5205670;28;20072;-73
2022/06/22 11:54:30;;;;;;;6.22;2.03;;;;;;;24.27;41.76;101127.66;5204021;28;20042;-71
2022/06/22 11:57:49;;;;;;;6.57;1.83;;;;;;;24.31;42.16;101133.56;5204641;28;20045;-72
2022/06/22 12:00:49;;;;;;;4.95;2.08;;;;;;;24.38;42.42;101133.63;5198928;28;20469;-72
2022/06/22 12:04:02;;;;;;;2.80;1.70;;;;;;;24.44;43.36;101124.63;5204448;28;20042;-72
2022/06/22 12:06:53;;;;;;;4.13;1.85;;;;;;;24.67;42.40;101118.03;5203481;28;20116;-72
2022/06/22 12:10:02;;;;;;;5.80;1.80;;;;;;;24.58;42.07;101123.66;5203221;28;20054;-71
2022/06/22 12:12:46;;;;;;;5.32;1.85;;;;;;;24.71;40.95;101114.69;5217896;28;20065;-71
2022/06/22 12:15:32;;;;;;;5.75;2.05;;;;;;;24.79;42.83;101110.94;5205783;28;20080;-71
2022/06/22 12:18:22;;;;;;;4.18;1.80;;;;;;;24.68;40.02;101097.88;5203776;28;20574;-71
2022/06/22 12:21:26;;;;;;;4.43;2.13;;;;;;;24.70;41.39;101102.13;5197967;28;20050;-71
2022/06/22 12:24:33;;;;;;;4.27;1.80;;;;;;;24.84;42.41;101083.88;5206185;28;20061;-71
2022/06/22 12:27:21;;;;;;;5.47;2.05;;;;;;;24.87;39.21;101082.63;5210841;28;20408;-71
2022/06/22 12:29:52;;;;;;;5.70;1.92;;;;;;;24.97;38.75;101080.34;5209811;28;20480;-71
2022/06/22 12:32:43;;;;;;;4.95;1.38;;;;;;;25.06;37.04;101084.53;5204670;28;20034;-71
2022/06/22 12:35:36;;;;;;;4.20;1.60;;;;;;;25.06;35.64;101087.28;5207096;28;20042;-71
2022/06/22 12:38:26;;;;;;;3.67;1.40;;;;;;;25.07;35.66;101085.41;5208441;28;20034;-71
2022/06/22 12:41:03;;;;;;;5.35;1.50;;;;;;;24.85;34.61;101071.91;5205704;28;20042;-71
2022/06/22 12:43:52;;;;;;;3.05;1.50;;;;;;;24.90;35.09;101074.88;5208392;28;20042;-71
2022/06/22 12:46:33;;;;;;;4.55;1.50;;;;;;;24.84;38.80;101071.06;5208138;28;20045;-71
2022/06/22 12:49:24;;;;;;;3.88;1.42;;;;;;;25.00;37.31;101058.91;5206326;28;20399;-71
2022/06/22 12:52:05;;;;;;;3.92;1.40;;;;;;;25.09;35.23;101053.28;5209562;28;20118;-71